Time;durP1;ratioP1;P1;durP2;ratioP2;P2;SDS_P1;SDS_P2;PMS_P1;PMS_P2;Temp;Humidity;BMP_temperature;BMP_pressure;BME280_temperature;BME280_humidity;BME280_pressure;Samples;Min_cycle;Max_cycle;Signal;HPM_P1;HPM_P2
2023/01/08 00:00:14;;;;;;;15.43;12.87;;;4.10;99.90;;;3.69;88.41;97501.97;5092395;28;20547;-80
2023/01/08 00:02:41;;;;;;;17.60;14.10;;;4.10;99.20;;;3.44;88.54;97445.31;5092199;28;22469;-80
2023/01/08 00:05:10;;;;;;;18.67;14.90;;;4.10;99.90;;;3.62;88.66;97479.69;5084096;28;20458;-79
2023/01/08 00:07:39;;;;;;;14.70;12.90;;;4.10;99.60;;;3.43;88.80;97462.38;5082751;28;20469;-79
2023/01/08 00:10:07;;;;;;;18.70;15.90;;;4.10;99.70;;;3.64;88.33;97477.66;5069514;28;20442;-78
2023/01/08 00:12:34;;;;;;;19.50;14.67;;;4.10;99.90;;;3.72;88.71;97470.59;5072850;28;20942;-78
2023/01/08 00:15:03;;;;;;;16.10;14.30;;;4.10;99.30;;;2.84;88.29;97338.50;5085599;28;20462;-80
2023/01/08 00:17:30;;;;;;;17.60;14.20;;;4.10;99.40;;;3.47;88.24;97452.16;5072897;28;20812;-79
2023/01/08 00:20:01;;;;;;;18.93;14.47;;;4.10;99.60;;;3.56;88.62;97463.56;5073581;28;20492;-83
2023/01/08 00:22:29;;;;;;;17.23;13.97;;;4.00;99.90;;;3.67;88.48;97474.63;5072313;28;20444;-85
2023/01/08 00:24:59;;;;;;;17.40;13.57;;;4.10;99.80;;;3.67;88.55;97469.28;5070682;28;20450;-83
2023/01/08 00:27:26;;;;;;;17.43;13.70;;;4.10;99.80;;;3.59;88.78;97464.03;5057065;28;21000;-81
2023/01/08 00:29:54;;;;;;;18.30;13.40;;;4.10;99.80;;;3.69;88.41;97469.91;5071228;28;20458;-80
2023/01/08 00:32:22;;;;;;;20.27;15.37;;;4.10;99.30;;;3.74;88.42;97463.22;5087272;28;20479;-79
2023/01/08 00:34:50;;;;;;;17.93;14.47;;;4.10;99.00;;;3.48;88.98;97435.91;5067648;28;20616;-80
2023/01/08 00:37:18;;;;;;;18.00;14.40;;;4.00;99.30;;;3.58;88.43;97445.50;5090297;28;20459;-82
2023/01/08 00:39:46;;;;;;;17.77;14.80;;;4.00;99.60;;;3.62;88.92;97452.97;5092593;28;20449;-83
2023/01/08 00:42:13;;;;;;;18.73;15.47;;;4.00;99.80;;;3.58;88.46;97442.84;5072070;28;20438;-81
2023/01/08 00:44:40;;;;;;;19.97;14.97;;;4.00;99.90;;;3.57;88.64;97455.38;5087326;28;20466;-81
2023/01/08 00:47:07;;;;;;;17.33;14.20;;;4.00;99.70;;;3.56;88.66;97450.22;5087804;28;20480;-82
2023/01/08 00:49:36;;;;;;;20.00;14.17;;;4.00;99.80;;;3.67;88.26;97453.25;5068480;28;20459;-83
2023/01/08 00:52:05;;;;;;;17.87;13.90;;;4.00;99.40;;;3.68;88.22;97454.91;5070969;28;20463;-80
2023/01/08 00:54:32;;;;;;;20.10;14.67;;;4.00;99.40;;;3.61;88.31;97454.00;5078734;28;20467;-80
2023/01/08 00:57:00;;;;;;;22.77;16.20;;;3.90;99.50;;;3.59;88.40;97448.00;5067571;28;20463;-81
2023/01/08 00:59:27;;;;;;;17.70;14.17;;;3.80;99.90;;;3.59;88.46;97440.00;5091212;28;20461;-81
2023/01/08 01:01:55;;;;;;;19.23;15.60;;;3.80;99.90;;;3.21;88.42;97392.00;5091230;28;20457;-82
2023/01/08 01:04:22;;;;;;;18.83;14.37;;;3.90;99.90;;;3.45;88.37;97433.63;5084399;28;20447;-80
2023/01/08 01:06:51;;;;;;;18.07;14.83;;;3.90;99.90;;;3.49;87.64;97426.06;5107200;28;20760;-81
2023/01/08 01:09:18;;;;;;;20.40;16.20;;;3.80;99.10;;;3.52;88.19;97433.72;5091326;28;20464;-80
2023/01/08 01:11:46;;;;;;;18.73;14.40;;;3.80;99.10;;;3.35;87.48;97417.06;5076411;28;20834;-82
2023/01/08 01:14:13;;;;;;;21.00;16.10;;;3.70;99.40;;;3.33;88.66;97425.25;5089253;28;20467;-80
2023/01/08 01:16:41;;;;;;;15.13;13.30;;;3.70;99.90;;;3.13;89.11;97418.81;5089421;28;20459;-80
2023/01/08 01:19:09;;;;;;;16.23;13.67;;;3.60;99.70;;;3.15;90.21;97443.47;5071700;28;20959;-82
2023/01/08 01:21:36;;;;;;;19.10;14.27;;;3.60;99.90;;;3.20;89.47;97446.41;5092139;28;20463;-82
2023/01/08 01:24:08;;;;;;;17.73;14.60;;;3.60;99.90;;;3.21;89.66;97448.91;5089599;28;20443;-83
2023/01/08 01:26:38;;;;;;;19.07;15.30;;;3.50;99.90;;;3.18;90.26;97445.75;5058489;28;20455;-81
2023/01/08 01:29:06;;;;;;;19.70;14.37;;;3.50;99.90;;;3.18;89.46;97437.75;5071274;28;20512;-80
2023/01/08 01:31:33;;;;;;;17.20;14.10;;;3.50;99.90;;;3.15;89.96;97446.13;5088452;28;20954;-80
2023/01/08 01:34:02;;;;;;;17.87;14.17;;;3.50;99.90;;;2.89;89.88;97410.00;5074633;28;20470;-80
2023/01/08 01:36:30;;;;;;;17.60;14.57;;;3.50;99.90;;;3.22;89.54;97447.06;5091599;28;20462;-80
2023/01/08 01:38:58;;;;;;;17.70;14.70;;;3.50;99.90;;;3.10;90.38;97436.81;5069673;28;20451;-79
2023/01/08 01:41:31;;;;;;;19.87;14.77;;;3.50;99.90;;;3.09;90.61;97443.16;5089930;28;20467;-78
2023/01/08 01:44:00;;;;;;;22.40;16.70;;;3.50;99.90;;;2.99;90.33;97413.25;5076804;28;20482;-80
2023/01/08 01:46:37;;;;;;;20.97;15.43;;;3.50;99.90;;;3.05;90.13;97420.53;5077742;28;20428;-79
2023/01/08 01:49:10;;;;;;;16.27;13.87;;;3.50;99.90;;;3.15;90.32;97430.94;5077713;28;20451;-80
2023/01/08 01:51:42;;;;;;;20.87;15.10;;;3.50;99.90;;;3.16;90.00;97418.44;5099382;28;21189;-79
2023/01/08 01:54:12;;;;;;;20.80;14.30;;;3.50;99.90;;;3.13;90.20;97424.94;5085756;28;20546;-80
2023/01/08 01:56:42;;;;;;;19.43;15.17;;;3.50;99.90;;;3.13;90.08;97421.47;5085310;28;21104;-80
2023/01/08 01:59:11;;;;;;;20.70;15.47;;;3.50;99.90;;;3.14;90.26;97415.94;5076351;28;20656;-81
2023/01/08 02:01:40;;;;;;;19.83;15.30;;;3.50;99.90;;;3.08;90.85;97412.16;5076616;28;20457;-80
2023/01/08 02:04:09;;;;;;;19.97;15.43;;;3.50;99.90;;;3.07;90.46;97415.81;5090545;28;20451;-80
2023/01/08 02:06:42;;;;;;;18.80;13.73;;;3.60;99.90;;;3.10;90.73;97436.00;5067317;28;20525;-79
2023/01/08 02:09:21;;;;;;;21.60;14.63;;;3.60;99.90;;;3.05;90.47;97409.84;5074021;28;20451;-80
2023/01/08 02:14:44;;;;;;;19.47;14.93;;;3.50;99.90;;;3.02;90.82;97386.19;5072677;28;20549;-79
2023/01/08 02:17:16;;;;;;;18.97;13.97;;;3.60;99.90;;;3.07;90.85;97391.81;5068349;28;20431;-80
2023/01/08 02:19:49;;;;;;;18.00;13.90;;;3.60;99.90;;;3.05;90.92;97383.16;5093007;28;20468;-79
2023/01/08 02:22:35;;;;;;;20.67;15.40;;;3.50;99.90;;;2.99;90.07;97367.88;5094057;28;20468;-79
2023/01/08 02:25:10;;;;;;;18.20;15.07;;;3.60;99.90;;;3.16;89.84;97397.06;5091498;28;20463;-80
2023/01/08 02:27:44;;;;;;;21.13;14.20;;;3.60;99.90;;;2.88;90.20;97357.66;5093331;28;20452;-79
2023/01/08 02:30:12;;;;;;;23.73;13.80;;;3.60;99.90;;;3.02;90.77;97374.69;5090402;28;20451;-79
2023/01/08 02:32:42;;;;;;;17.07;13.47;;;3.50;99.90;;;3.08;89.84;97401.47;5090080;28;20448;-79
2023/01/08 02:35:11;;;;;;;16.57;14.03;;;3.60;99.90;;;3.09;89.92;97376.44;5074308;28;20474;-79
2023/01/08 02:37:39;;;;;;;17.80;14.00;;;3.60;99.90;;;3.14;89.53;97381.22;5093953;28;20515;-79
2023/01/08 02:40:18;;;;;;;18.43;14.53;;;3.60;99.90;;;3.14;90.15;97372.41;5096262;28;20452;-78
2023/01/08 02:42:55;;;;;;;20.00;14.30;;;3.60;99.90;;;2.75;90.19;97305.75;5098809;28;20487;-78
2023/01/08 02:45:36;;;;;;;18.47;14.33;;;3.50;99.90;;;2.99;90.06;97354.53;5101263;28;20439;-75
2023/01/08 02:48:12;;;;;;;16.20;13.73;;;3.60;99.90;;;3.17;90.12;97374.69;5085954;28;20970;-77
2023/01/08 02:50:45;;;;;;;18.83;15.83;;;3.60;99.90;;;3.15;89.32;97369.53;5104208;28;20474;-79
2023/01/08 02:53:15;;;;;;;18.00;14.87;;;3.60;99.90;;;2.58;89.34;97267.75;5091839;28;20503;-78
2023/01/08 02:55:49;;;;;;;17.83;13.80;;;3.60;99.90;;;3.14;89.00;97377.75;5087874;28;20466;-80
2023/01/08 02:58:18;;;;;;;20.83;14.83;;;3.60;99.90;;;3.16;89.22;97373.03;5093507;28;20930;-80
2023/01/08 03:00:46;;;;;;;19.87;14.30;;;3.50;99.90;;;3.09;89.24;97368.41;5079565;28;20460;-80
2023/01/08 03:03:18;;;;;;;20.50;15.13;;;3.50;99.90;;;3.15;89.78;97368.72;5102501;28;20536;-79
2023/01/08 03:05:50;;;;;;;17.33;15.40;;;3.50;99.90;;;3.14;89.87;97367.06;5083620;28;20685;-79
2023/01/08 03:08:19;;;;;;;19.17;15.20;;;3.50;99.90;;;3.21;89.96;97374.16;5074973;28;20455;-80
2023/01/08 03:10:53;;;;;;;18.80;14.90;;;3.50;99.90;;;3.19;89.30;97383.34;5097280;28;20455;-79
2023/01/08 03:13:27;;;;;;;18.13;14.30;;;3.50;99.90;;;3.23;89.08;97388.16;5077110;28;20448;-79
2023/01/08 03:15:59;;;;;;;20.70;14.50;;;3.50;99.90;;;3.13;88.55;97373.41;5085435;28;20465;-79
2023/01/08 03:18:33;;;;;;;16.80;13.40;;;3.50;99.90;;;3.23;89.13;97376.63;5078509;28;20449;-81
2023/01/08 03:21:03;;;;;;;17.50;13.83;;;3.50;99.90;;;3.30;89.30;97374.88;5096750;28;20447;-80
2023/01/08 03:23:33;;;;;;;18.27;14.67;;;3.60;99.90;;;3.23;89.34;97371.28;5087589;28;20455;-80
2023/01/08 03:26:03;;;;;;;16.67;13.83;;;3.60;99.90;;;3.01;88.78;97319.63;5067280;28;20455;-81
2023/01/08 03:28:37;;;;;;;22.60;15.30;;;3.60;99.90;;;3.16;88.75;97349.03;5089291;28;20435;-79
2023/01/08 03:31:06;;;;;;;16.03;13.70;;;3.60;99.90;;;3.20;89.02;97345.81;5091858;28;20447;-79
2023/01/08 03:33:35;;;;;;;16.80;14.10;;;3.60;99.90;;;3.00;89.37;97318.00;5083162;28;20493;-78
2023/01/08 03:36:06;;;;;;;17.50;13.40;;;3.60;99.90;;;3.07;89.46;97327.75;5085267;28;20476;-79
2023/01/08 03:38:38;;;;;;;15.60;13.50;;;3.60;99.90;;;3.16;89.46;97338.34;5095635;28;20930;-80
2023/01/08 03:41:09;;;;;;;18.03;14.47;;;3.60;99.90;;;3.15;89.20;97321.47;5077046;28;20512;-79
2023/01/08 03:43:38;;;;;;;20.77;15.87;;;3.60;99.90;;;2.68;89.00;97251.47;5094079;28;20457;-78
2023/01/08 03:46:12;;;;;;;16.40;14.20;;;3.60;99.90;;;3.13;89.12;97333.38;5087196;28;20451;-77
2023/01/08 03:48:41;;;;;;;18.37;14.50;;;3.60;99.90;;;3.15;89.58;97328.69;5084705;28;21253;-79
2023/01/08 03:51:09;;;;;;;18.30;15.10;;;3.60;99.90;;;2.98;89.14;97289.66;5091051;28;20456;-77
2023/01/08 03:53:37;;;;;;;16.80;13.33;;;3.60;99.90;;;3.11;89.11;97313.03;5076249;28;20466;-78
2023/01/08 03:56:06;;;;;;;17.33;13.80;;;3.60;99.50;;;3.16;89.71;97300.97;5088108;28;20543;-79
2023/01/08 03:58:34;;;;;;;16.50;13.90;;;3.60;99.60;;;3.01;89.56;97267.09;5098437;28;20465;-79
2023/01/08 04:01:02;;;;;;;15.97;13.07;;;3.70;99.00;;;3.17;88.88;97279.41;5095060;28;20455;-78
2023/01/08 04:03:30;;;;;;;18.37;14.40;;;3.70;99.00;;;3.18;89.46;97290.94;5069996;28;20464;-82
2023/01/08 04:06:00;;;;;;;20.77;12.93;;;3.70;98.60;;;3.11;88.52;97273.00;5070549;28;20466;-80
2023/01/08 04:08:27;;;;;;;18.93;14.87;;;3.70;98.60;;;3.25;89.06;97291.81;5065204;28;20550;-80
2023/01/08 04:10:54;;;;;;;17.40;13.47;;;3.70;98.50;;;3.17;88.85;97260.72;5086199;28;20447;-78
2023/01/08 04:13:22;;;;;;;17.10;13.40;;;3.80;98.40;;;3.27;88.91;97276.47;5080324;28;20467;-78
2023/01/08 04:15:50;;;;;;;15.00;12.40;;;3.80;97.60;;;3.37;88.51;97268.97;5087873;28;20631;-79
2023/01/08 04:18:19;;;;;;;15.53;13.07;;;3.90;97.30;;;3.44;88.12;97265.56;5070769;28;20455;-78
2023/01/08 04:20:47;;;;;;;19.20;13.57;;;3.90;97.00;;;3.25;88.31;97241.09;5090545;28;20469;-78
2023/01/08 04:23:16;;;;;;;16.07;13.03;;;4.00;96.70;;;3.56;87.77;97268.56;5088754;28;20470;-80
2023/01/08 04:25:43;;;;;;;16.80;13.73;;;4.00;96.30;;;3.54;86.92;97266.91;5094232;28;20447;-80
2023/01/08 04:28:10;;;;;;;17.10;13.73;;;4.00;96.20;;;3.57;87.01;97287.09;5073956;28;20470;-79
2023/01/08 04:30:38;;;;;;;16.53;13.63;;;4.00;96.30;;;3.46;86.90;97264.34;5089349;28;20440;-80
2023/01/08 04:33:05;;;;;;;16.17;12.80;;;4.00;96.20;;;3.56;86.75;97290.75;5079238;28;20454;-80
2023/01/08 04:35:34;;;;;;;15.10;12.30;;;4.00;95.80;;;3.62;87.16;97299.84;5071966;28;21179;-80
2023/01/08 04:38:02;;;;;;;15.30;13.60;;;4.00;96.20;;;3.48;87.49;97290.88;5061308;28;20466;-79
2023/01/08 04:40:29;;;;;;;16.67;12.20;;;3.90;96.10;;;3.57;87.50;97292.44;5091322;28;20448;-79
2023/01/08 04:42:56;;;;;;;15.13;13.30;;;3.90;96.40;;;3.56;87.17;97280.06;5055801;28;20441;-79
2023/01/08 04:45:23;;;;;;;17.80;13.57;;;3.90;96.00;;;3.48;86.87;97290.88;5084490;28;20451;-79
2023/01/08 04:47:56;;;;;;;15.67;13.67;;;3.90;96.30;;;3.57;86.86;97292.44;5085748;28;20443;-78
2023/01/08 04:50:23;;;;;;;15.53;13.20;;;3.90;96.80;;;3.49;87.25;97284.50;5076466;28;20471;-80
2023/01/08 04:52:52;;;;;;;16.10;13.27;;;3.90;96.60;;;3.40;87.02;97263.25;5075932;28;20468;-80
2023/01/08 04:55:20;;;;;;;15.93;13.90;;;4.00;96.30;;;3.61;87.06;97298.19;5092155;28;20916;-80
2023/01/08 04:57:48;;;;;;;16.33;13.87;;;4.00;95.90;;;3.38;86.06;97240.44;5089850;28;20460;-79
2023/01/08 05:00:16;;;;;;;15.40;13.10;;;4.00;95.90;;;3.73;86.15;97283.34;5091260;28;20492;-79
2023/01/08 05:02:44;;;;;;;15.30;13.10;;;4.00;96.20;;;3.58;87.13;97259.34;5067322;28;20463;-78
2023/01/08 05:05:12;;;;;;;14.47;12.90;;;4.00;95.50;;;3.63;86.67;97264.09;5088039;28;20823;-80
2023/01/08 05:07:39;;;;;;;18.07;13.97;;;4.10;95.70;;;3.36;86.44;97226.44;5066667;28;20486;-78
2023/01/08 05:10:10;;;;;;;19.07;13.37;;;4.10;95.20;;;3.43;86.70;97221.19;5089409;28;20447;-78
2023/01/08 05:12:37;;;;;;;17.57;14.63;;;4.20;94.70;;;3.60;85.95;97241.28;5069071;28;20454;-79
2023/01/08 05:15:06;;;;;;;18.20;14.30;;;4.20;94.50;;;3.59;86.33;97230.78;5083804;28;20467;-80
2023/01/08 05:17:33;;;;;;;15.90;12.80;;;4.20;94.40;;;3.28;86.45;97198.03;5067362;28;20738;-78
2023/01/08 05:20:01;;;;;;;15.43;13.20;;;4.20;94.40;;;3.24;86.79;97191.38;5087874;28;20443;-81
2023/01/08 05:22:28;;;;;;;17.43;13.90;;;4.20;94.40;;;3.38;86.04;97203.84;5066067;28;20492;-80
2023/01/08 05:24:56;;;;;;;15.40;13.80;;;4.10;94.60;;;3.11;86.52;97166.22;5069554;28;20464;-78
2023/01/08 05:27:24;;;;;;;15.97;13.00;;;4.10;94.60;;;3.64;86.75;97263.94;5087015;28;20444;-79
2023/01/08 05:29:51;;;;;;;14.90;13.10;;;4.10;94.60;;;3.11;86.50;97170.72;5052956;28;20454;-80
2023/01/08 05:32:19;;;;;;;16.80;13.50;;;4.10;94.70;;;3.60;87.11;97260.00;5079757;28;20534;-80
2023/01/08 05:34:47;;;;;;;18.10;14.57;;;4.10;94.90;;;3.55;87.23;97251.69;5091183;28;20455;-79
2023/01/08 05:37:15;;;;;;;18.73;14.30;;;4.10;94.90;;;3.64;87.14;97258.59;5071012;28;20452;-80
2023/01/08 05:39:42;;;;;;;24.03;15.30;;;4.10;95.10;;;3.59;86.36;97255.66;5088034;28;20559;-79
2023/01/08 05:42:10;;;;;;;21.73;15.87;;;4.10;94.80;;;3.52;87.00;97234.22;5074063;28;20450;-78
2023/01/08 05:44:39;;;;;;;17.33;13.77;;;4.10;94.80;;;3.43;86.85;97230.00;5070668;28;20469;-79
2023/01/08 05:47:06;;;;;;;16.70;13.47;;;4.10;95.00;;;3.41;86.19;97229.38;5093981;28;20451;-79
2023/01/08 05:49:33;;;;;;;18.10;15.40;;;4.10;94.70;;;3.62;86.65;97252.59;5085449;28;20455;-79
2023/01/08 05:52:01;;;;;;;17.73;14.00;;;4.10;94.80;;;3.46;85.87;97218.13;5067439;28;20451;-79
2023/01/08 05:54:28;;;;;;;17.03;14.27;;;4.10;94.60;;;3.70;86.25;97235.63;5082193;28;20445;-79
2023/01/08 05:56:56;;;;;;;19.33;14.93;;;4.10;94.80;;;3.58;86.44;97229.97;5074366;28;20467;-82
2023/01/08 05:59:23;;;;;;;17.13;13.67;;;4.10;94.30;;;3.58;85.37;97219.28;5091201;28;20451;-80
2023/01/08 06:01:52;;;;;;;16.30;14.23;;;4.20;94.20;;;3.78;85.78;97248.84;5065913;28;21230;-81
2023/01/08 06:04:20;;;;;;;15.63;13.87;;;4.20;94.40;;;3.71;85.39;97239.09;5071861;28;20524;-78
2023/01/08 06:06:47;;;;;;;16.73;13.73;;;4.20;93.80;;;3.76;85.47;97245.53;5079246;28;20527;-78
2023/01/08 06:09:14;;;;;;;18.73;14.47;;;4.20;93.70;;;3.10;85.33;97139.72;5109680;28;20450;-78
2023/01/08 06:11:41;;;;;;;17.83;14.60;;;4.20;93.60;;;3.68;85.45;97235.81;5091086;28;20453;-80
2023/01/08 06:14:09;;;;;;;17.80;14.27;;;4.20;93.70;;;3.61;86.17;97232.25;5094601;28;20448;-79
2023/01/08 06:16:36;;;;;;;16.00;13.17;;;4.20;93.70;;;3.65;86.21;97230.84;5073842;28;20466;-78
2023/01/08 06:19:04;;;;;;;17.20;14.63;;;4.20;93.60;;;3.33;85.88;97162.72;5076228;28;20438;-78
2023/01/08 06:21:32;;;;;;;14.13;12.63;;;4.20;93.40;;;3.69;85.35;97221.44;5091889;28;20447;-80
2023/01/08 06:23:59;;;;;;;17.57;13.53;;;4.20;93.40;;;3.74;85.72;97222.72;5094230;28;20462;-79
2023/01/08 06:26:26;;;;;;;16.47;14.27;;;4.20;93.20;;;3.82;85.72;97214.56;5075145;28;20440;-80
2023/01/08 06:28:53;;;;;;;17.40;13.83;;;4.20;93.50;;;3.77;84.91;97220.47;5075071;28;20444;-78
2023/01/08 06:31:20;;;;;;;15.40;12.87;;;4.30;92.90;;;3.82;84.81;97220.75;5093333;28;20448;-78
2023/01/08 06:33:48;;;;;;;16.13;13.90;;;4.30;92.90;;;3.74;85.01;97206.69;5075165;28;20443;-80
2023/01/08 06:36:16;;;;;;;16.37;13.83;;;4.30;93.00;;;3.74;85.08;97207.50;5090646;28;20549;-79
2023/01/08 06:38:43;;;;;;;16.83;14.23;;;4.30;92.80;;;3.74;84.70;97212.03;5072847;28;20497;-82
2023/01/08 06:41:11;;;;;;;15.33;13.73;;;4.30;92.60;;;3.88;85.39;97229.00;5083722;28;20462;-73
2023/01/08 06:43:38;;;;;;;16.60;13.40;;;4.30;93.10;;;4.04;84.04;97227.91;5095234;28;20448;-72
2023/01/08 06:46:07;;;;;;;16.40;13.83;;;4.40;92.40;;;4.15;83.35;97230.03;5076432;28;21018;-71
2023/01/08 06:48:35;;;;;;;15.23;13.70;;;4.50;92.30;;;4.10;83.67;97222.63;5075118;28;20527;-71
2023/01/08 06:51:03;;;;;;;15.73;13.10;;;4.60;91.90;;;4.25;82.67;97227.88;5103893;28;20539;-72
2023/01/08 06:53:32;;;;;;;15.27;13.30;;;4.60;91.20;;;4.24;83.30;97234.25;5087291;28;20517;-72
2023/01/08 06:55:59;;;;;;;15.87;12.20;;;4.70;91.00;;;4.23;82.44;97221.91;5072474;28;20572;-71
2023/01/08 06:58:29;;;;;;;13.60;11.70;;;4.70;91.10;;;4.33;81.95;97218.06;5071133;28;20509;-72
2023/01/08 07:00:57;;;;;;;15.00;13.50;;;4.70;90.90;;;4.28;82.41;97225.81;5066818;28;20495;-71
2023/01/08 07:03:25;;;;;;;15.60;13.77;;;4.70;90.60;;;4.37;81.60;97212.09;5068519;28;20460;-71
2023/01/08 07:05:52;;;;;;;13.80;12.40;;;4.70;90.70;;;4.44;82.07;97230.88;5086275;28;20447;-73
2023/01/08 07:08:19;;;;;;;16.13;14.43;;;4.80;90.80;;;4.44;81.09;97230.06;5085741;28;20460;-73
2023/01/08 07:10:48;;;;;;;15.00;13.37;;;4.80;90.50;;;4.48;81.42;97244.69;5086770;28;20448;-72
2023/01/08 07:13:15;;;;;;;12.97;11.67;;;4.80;90.20;;;4.46;81.08;97236.84;5088050;28;20455;-72
2023/01/08 07:15:43;;;;;;;14.00;12.60;;;4.90;90.40;;;4.57;81.08;97237.34;5086316;28;20502;-71
2023/01/08 07:18:12;;;;;;;14.60;12.83;;;4.90;90.10;;;4.43;81.66;97242.59;5069144;28;20980;-70
2023/01/08 07:20:39;;;;;;;14.17;12.67;;;4.90;89.60;;;4.62;80.93;97234.88;5088063;28;20504;-70
2023/01/08 07:23:10;;;;;;;13.40;12.03;;;5.00;90.00;;;4.46;80.93;97212.78;5076193;28;20482;-70
2023/01/08 07:25:37;;;;;;;13.97;12.40;;;5.00;89.10;;;4.50;81.14;97232.78;5080085;28;20521;-71
2023/01/08 07:28:12;;;;;;;14.03;12.63;;;5.00;89.00;;;4.44;80.74;97232.75;5070205;28;20485;-73
2023/01/08 07:30:42;;;;;;;15.60;12.80;;;5.00;89.40;;;4.38;80.96;97203.06;5082269;28;20456;-81
2023/01/08 07:33:09;;;;;;;13.73;12.33;;;4.90;89.80;;;4.54;81.33;97241.22;5071331;28;20959;-75
2023/01/08 07:35:37;;;;;;;13.70;12.20;;;4.90;89.40;;;4.58;80.54;97237.16;5084066;28;20935;-73
2023/01/08 07:38:05;;;;;;;15.03;11.57;;;5.00;89.00;;;4.59;80.43;97246.00;5078776;28;20444;-71
2023/01/08 07:40:32;;;;;;;13.60;12.10;;;5.00;89.80;;;4.63;80.27;97241.94;5083955;28;20458;-76
2023/01/08 07:43:01;;;;;;;13.27;11.87;;;5.00;89.60;;;4.73;79.86;97245.06;5080755;28;20800;-74
2023/01/08 07:45:31;;;;;;;13.10;11.80;;;5.00;89.20;;;4.62;80.04;97251.78;5063383;28;20966;-74
2023/01/08 07:47:59;;;;;;;12.40;11.07;;;5.00;88.70;;;4.54;80.03;97239.38;5090615;28;20555;-73
2023/01/08 07:50:26;;;;;;;12.83;11.07;;;5.00;88.80;;;4.54;80.79;97239.38;5089410;28;20539;-75
2023/01/08 07:52:57;;;;;;;17.60;11.20;;;5.00;89.50;;;4.62;81.06;97242.91;5082883;28;20457;-75
2023/01/08 07:55:24;;;;;;;12.07;10.87;;;5.00;89.50;;;4.70;80.58;97236.59;5062271;28;20459;-75
2023/01/08 07:57:52;;;;;;;12.60;10.87;;;5.00;89.20;;;4.67;80.23;97252.00;5088586;28;20483;-74
2023/01/08 08:00:19;;;;;;;13.93;12.53;;;5.00;88.70;;;4.54;81.11;97246.56;5072973;28;20499;-74
2023/01/08 08:02:48;;;;;;;12.60;11.30;;;5.00;88.70;;;4.56;80.49;97246.38;5069574;28;20450;-74
2023/01/08 08:05:16;;;;;;;15.20;11.43;;;5.00;89.30;;;4.45;81.07;97255.78;5069658;28;20444;-74
2023/01/08 08:07:43;;;;;;;13.20;11.80;;;5.00;89.10;;;4.52;80.66;97253.97;5069447;28;20465;-76
2023/01/08 08:10:11;;;;;;;15.40;12.77;;;5.00;89.30;;;4.46;80.13;97231.50;5062194;28;20911;-75
2023/01/08 08:12:38;;;;;;;16.27;12.13;;;5.00;89.00;;;4.77;79.74;97269.59;5089680;28;20767;-75
2023/01/08 08:15:07;;;;;;;11.67;10.43;;;5.10;88.80;;;4.76;79.44;97235.81;5093413;28;20464;-75
2023/01/08 08:17:34;;;;;;;11.90;10.70;;;5.20;88.30;;;4.95;79.39;97244.97;5090045;28;20470;-75
2023/01/08 08:20:03;;;;;;;13.53;11.60;;;5.30;88.00;;;5.12;78.77;97261.53;5077110;28;21237;-74
2023/01/08 08:22:30;;;;;;;16.60;11.33;;;5.40;87.90;;;5.10;79.02;97264.41;5083217;28;20464;-75
2023/01/08 08:24:57;;;;;;;11.80;10.43;;;5.50;86.90;;;5.12;79.39;97255.34;5086779;28;21012;-75
2023/01/08 08:27:25;;;;;;;12.23;11.03;;;5.50;87.30;;;5.26;78.14;97267.78;5082813;28;20973;-74
2023/01/08 08:29:52;;;;;;;13.53;10.63;;;5.60;86.90;;;5.60;77.86;97246.44;5096704;28;20454;-75
2023/01/08 08:32:19;;;;;;;12.37;11.10;;;5.70;87.20;;;5.59;76.88;97226.88;5084975;28;20448;-75
2023/01/08 08:34:46;;;;;;;11.43;10.23;;;5.90;86.40;;;5.99;76.99;97238.66;5060865;28;20516;-75
2023/01/08 08:37:15;;;;;;;11.70;10.50;;;6.10;86.70;;;5.77;76.16;97246.91;5085868;28;20504;-76
2023/01/08 08:39:42;;;;;;;12.57;11.27;;;6.10;85.00;;;5.68;76.42;97233.66;5057672;28;20506;-75
2023/01/08 08:42:09;;;;;;;11.87;10.57;;;6.10;84.50;;;5.55;77.19;97228.31;5067323;28;21010;-74
2023/01/08 08:44:37;;;;;;;13.50;11.90;;;6.00;84.80;;;5.63;76.94;97230.78;5064500;28;20982;-76
2023/01/08 08:47:08;;;;;;;12.30;10.73;;;5.90;84.70;;;5.61;77.22;97235.53;5074325;28;20476;-75
2023/01/08 08:49:36;;;;;;;12.30;10.20;;;6.00;85.00;;;5.73;76.98;97232.25;5084645;28;20473;-75
2023/01/08 08:52:03;;;;;;;13.43;11.63;;;6.00;85.00;;;5.64;77.10;97216.34;5069803;28;20788;-75
2023/01/08 08:54:32;;;;;;;12.80;11.50;;;6.00;85.00;;;5.74;76.50;97232.03;5066371;28;20448;-75
2023/01/08 08:56:59;;;;;;;11.73;10.53;;;6.10;84.70;;;5.80;76.61;97215.16;5082863;28;20574;-74
2023/01/08 08:59:26;;;;;;;11.80;10.60;;;6.10;84.50;;;5.85;76.60;97216.38;5066344;28;21012;-75
2023/01/08 09:01:53;;;;;;;11.70;9.57;;;6.20;84.60;;;5.93;76.09;97208.97;5061550;28;20978;-76
2023/01/08 09:04:20;;;;;;;10.80;9.80;;;6.20;84.30;;;5.79;76.75;97207.31;5085710;28;20443;-76
2023/01/08 09:06:47;;;;;;;11.10;10.00;;;6.30;84.10;;;6.20;75.06;97216.22;5086738;28;20455;-76
2023/01/08 09:09:15;;;;;;;11.27;9.20;;;6.40;84.00;;;6.21;75.23;97226.75;5079343;28;21126;-77
2023/01/08 09:11:44;;;;;;;9.83;8.83;;;6.40;83.70;;;6.05;75.80;97227.16;5085927;28;20983;-77
2023/01/08 09:14:11;;;;;;;10.70;9.60;;;6.40;83.80;;;6.32;74.93;97227.16;5073023;28;20951;-76
2023/01/08 09:16:38;;;;;;;9.97;8.97;;;6.50;84.20;;;6.48;74.84;97226.72;5071753;28;21000;-76
2023/01/08 09:19:06;;;;;;;13.20;10.13;;;6.70;83.70;;;5.97;74.75;97166.47;5085855;28;20449;-76
2023/01/08 09:21:33;;;;;;;10.50;8.70;;;6.70;83.30;;;6.59;74.36;97221.75;5092479;28;20550;-76
2023/01/08 09:24:00;;;;;;;11.43;9.70;;;6.80;83.10;;;6.70;73.67;97223.78;5059984;28;23183;-76
2023/01/08 09:26:29;;;;;;;10.43;9.37;;;6.90;83.10;;;6.90;72.64;97218.38;5087771;28;20453;-77
2023/01/08 09:28:59;;;;;;;9.80;8.80;;;7.10;82.60;;;6.87;72.79;97226.03;5073295;28;20447;-77
2023/01/08 09:31:27;;;;;;;10.13;9.20;;;7.10;82.30;;;6.80;72.94;97201.88;5088505;28;20455;-75
2023/01/08 09:33:54;;;;;;;10.73;8.67;;;7.20;82.00;;;7.05;72.10;97220.81;5076661;28;20954;-77
2023/01/08 09:36:21;;;;;;;9.67;8.67;;;7.30;81.80;;;6.75;73.15;97213.25;5081574;28;20516;-77
2023/01/08 09:38:48;;;;;;;10.37;9.00;;;7.20;81.90;;;6.73;73.12;97207.25;5060719;28;20495;-76
2023/01/08 09:41:21;;;;;;;9.60;8.70;;;7.30;82.10;;;7.03;73.00;97241.66;5092568;28;20495;-75
2023/01/08 09:43:53;;;;;;;10.63;9.10;;;7.30;82.00;;;6.93;73.27;97231.38;5091216;28;20698;-76
2023/01/08 09:46:25;;;;;;;9.10;8.20;;;7.30;81.80;;;7.33;71.77;97233.06;5095903;28;20876;-77
2023/01/08 09:48:54;;;;;;;10.40;9.30;;;7.50;81.80;;;7.32;71.87;97246.75;5091456;28;20533;-75
2023/01/08 09:51:22;;;;;;;8.87;8.07;;;7.60;81.50;;;7.35;71.96;97249.00;5066826;28;20518;-76
2023/01/08 09:53:55;;;;;;;8.90;8.10;;;7.70;81.40;;;7.59;71.35;97242.06;5082080;28;20466;-74
2023/01/08 09:56:23;;;;;;;8.37;7.43;;;7.80;81.50;;;7.80;71.04;97226.63;5088034;28;20511;-79
2023/01/08 09:58:53;;;;;;;9.73;8.43;;;8.00;81.20;;;7.81;70.02;97206.78;5065787;28;20549;-77
2023/01/08 10:01:24;;;;;;;7.23;6.60;;;8.10;80.80;;;7.98;69.17;97211.63;5078783;28;20459;-73
2023/01/08 10:04:00;;;;;;;8.53;7.73;;;8.20;80.40;;;7.91;69.69;97215.16;5086962;28;20468;-74
2023/01/08 10:06:27;;;;;;;9.20;7.73;;;8.20;80.10;;;7.78;69.75;97213.41;5084015;28;20583;-73
2023/01/08 10:08:54;;;;;;;7.93;6.97;;;8.20;80.00;;;7.72;69.50;97154.28;5083256;28;20461;-72
2023/01/08 10:11:22;;;;;;;7.97;7.17;;;8.20;80.40;;;8.07;68.97;97210.28;5089115;28;20498;-75
2023/01/08 10:13:53;;;;;;;7.70;6.70;;;8.20;80.20;;;7.93;70.09;97210.38;5074153;28;20452;-72
2023/01/08 10:16:29;;;;;;;7.97;7.17;;;8.20;80.30;;;7.50;70.87;97146.56;5073841;28;20462;-72
2023/01/08 10:18:57;;;;;;;8.40;7.60;;;8.20;80.40;;;7.78;71.65;97212.56;5050916;28;20462;-72
2023/01/08 10:21:29;;;;;;;8.30;7.17;;;8.10;80.80;;;7.76;71.35;97207.44;5065246;28;20967;-72
2023/01/08 10:23:57;;;;;;;8.13;7.10;;;8.10;81.00;;;7.78;72.61;97202.66;5081021;28;20464;-73
2023/01/08 10:26:29;;;;;;;8.33;7.60;;;8.10;81.50;;;7.74;72.99;97195.22;5082411;28;20594;-72
2023/01/08 10:29:13;;;;;;;8.57;7.77;;;8.00;81.80;;;7.53;73.99;97191.84;5072608;28;20962;-72